Terminal Aerodrome Forecast
Issued by NWS

Home | Current Version | Previous Version | Text Only | Print | Product List | Glossary On
Versions: 1 2 3 4 5 6 7 8 9 10 11 12 13
000
FTPA31 PHFO 281130
TAFSTU
TAF
NSTU 281130Z 2812/2912 09012KT P6SM FEW015 FEW040 SCT100=

USA.gov is the U.S. government's official web portal to all federal, state and local government web resources and services.